Tinsley, Kentucky
Current Conditions -  °F | °C
As of 6:55 AM on Monday 24 Nov 2014 (Local Time) from K1A6 Reporting Station
Scattered Clouds Scattered Clouds  
Wind Chill: 60°   Ceiling: Unl
Heat Index: 60°   Visibility: 10mi
Dew Point: 53°   Wind: 15mph
Humidity: 77%   Direction: 190°S
Pressure: 29.61"   Gusts: 22mph
Location:  36.7417°N, 83.6911°W
Report Text: K1A6 241155Z AUTO 19013G19KT 10SM SCT027 SCT034 SCT040 16/12 A2961 RMK AO2 70028 T01550115 10162 20155
Loading
Personal Weather Stations






























Interactive Weather Map New forecast layout! Learn more

10-Day Weather Forecast

Advertisements
Track Severe Weather on mobile